NOS860 LIRF-EPGD
Flight info
| Callsign | NOS860 |
|---|---|
| Flight time | N/A |
| Altitude | 40000 |
| Route | TIBER DCT INTUD DCT IBENI/N0482F410 DCT ALIVO DCT NAVTI DCT DESEN DCT BIBKA N133 GRUDA Z95 OSLOG |
| Aircraft | B789/H-SDE1E2E3FGHIJ2J3J4J5M1RWXY/LB1D1 |
Departure
| Time | 2026-05-05 16:31 |
|---|---|
| Airport | Rome–Fiumicino Leonardo da Vinci International Airport (LIRF) |
Arrival
| Time | N/A |
|---|---|
| Airport | Gdańsk Lech Wałęsa Airport (EPGD) |
| Time | Latitude | Longitude | Altitude | Speed | Heading |
|---|---|---|---|---|---|
| 2026-05-05 16:00 | 41.78883 | 12.24300 | 19 ft | 0 kts | 160° |
| 2026-05-05 16:10 | 41.78884 | 12.24300 | 20 ft | 0 kts | 160° |
| 2026-05-05 16:15 | 41.78884 | 12.24299 | 20 ft | 0 kts | 160° |
| 2026-05-05 16:17 | 41.78893 | 12.24295 | 21 ft | 4 kts | 160° |
| 2026-05-05 16:17 | 41.78918 | 12.24283 | 25 ft | 4 kts | 160° |
| 2026-05-05 16:18 | 41.78967 | 12.24256 | 25 ft | 4 kts | 134° |
| 2026-05-05 16:18 | 41.78982 | 12.24228 | 25 ft | 4 kts | 133° |
| 2026-05-05 16:18 | 41.79029 | 12.24196 | 25 ft | 4 kts | 167° |
| 2026-05-05 16:19 | 41.79048 | 12.24189 | 25 ft | 0 kts | 160° |
| 2026-05-05 16:23 | 41.79022 | 12.24202 | 21 ft | 4 kts | 160° |
| 2026-05-05 16:23 | 41.78989 | 12.24212 | 20 ft | 6 kts | 174° |
| 2026-05-05 16:23 | 41.78944 | 12.24157 | 20 ft | 5 kts | 251° |
| 2026-05-05 16:24 | 41.78942 | 12.24081 | 21 ft | 14 kts | 288° |
| 2026-05-05 16:24 | 41.79060 | 12.24007 | 23 ft | 27 kts | 342° |
| 2026-05-05 16:24 | 41.79425 | 12.23858 | 20 ft | 28 kts | 343° |
| 2026-05-05 16:25 | 41.79607 | 12.23780 | 22 ft | 27 kts | 342° |
| 2026-05-05 16:25 | 41.79904 | 12.23721 | 20 ft | 15 kts | 62° |
| 2026-05-05 16:25 | 41.79946 | 12.23860 | 20 ft | 17 kts | 70° |
| 2026-05-05 16:26 | 41.80014 | 12.24171 | 22 ft | 18 kts | 69° |
| 2026-05-05 16:26 | 41.80104 | 12.24503 | 19 ft | 20 kts | 71° |
| 2026-05-05 16:27 | 41.80156 | 12.24692 | 19 ft | 27 kts | 69° |
| 2026-05-05 16:27 | 41.80208 | 12.24980 | 19 ft | 36 kts | 89° |
| 2026-05-05 16:27 | 41.80275 | 12.25327 | 22 ft | 39 kts | 69° |
| 2026-05-05 16:27 | 41.80369 | 12.25661 | 21 ft | 38 kts | 70° |
| 2026-05-05 16:28 | 41.80459 | 12.25987 | 21 ft | 37 kts | 70° |
| 2026-05-05 16:28 | 41.80543 | 12.26298 | 24 ft | 35 kts | 68° |
| 2026-05-05 16:28 | 41.80630 | 12.26609 | 22 ft | 35 kts | 70° |
| 2026-05-05 16:28 | 41.80712 | 12.26904 | 19 ft | 26 kts | 70° |
| 2026-05-05 16:29 | 41.80779 | 12.27037 | 19 ft | 13 kts | 17° |
| 2026-05-05 16:29 | 41.80855 | 12.27017 | 21 ft | 10 kts | 338° |
| 2026-05-05 16:29 | 41.80875 | 12.27006 | 19 ft | 6 kts | 338° |
| 2026-05-05 16:29 | 41.80945 | 12.26953 | 18 ft | 13 kts | 307° |
| 2026-05-05 16:30 | 41.80941 | 12.26863 | 19 ft | 9 kts | 254° |
| 2026-05-05 16:30 | 41.80936 | 12.26844 | 19 ft | 0 kts | 249° |
| 2026-05-05 16:30 | 41.80933 | 12.26834 | 21 ft | 2 kts | 247° |
| 2026-05-05 16:30 | 41.80925 | 12.26810 | 19 ft | 4 kts | 248° |
| 2026-05-05 16:31 | 41.80876 | 12.26634 | 23 ft | 46 kts | 250° |
| 2026-05-05 16:31 | 41.80672 | 12.25892 | 25 ft | 126 kts | 250° |
| 2026-05-05 16:31 | 41.80299 | 12.24495 | 293 ft | 176 kts | 251° |
| 2026-05-05 16:31 | 41.79752 | 12.23102 | 1530 ft | 165 kts | 218° |
| 2026-05-05 16:32 | 41.78741 | 12.22791 | 2662 ft | 157 kts | 166° |
| 2026-05-05 16:32 | 41.77723 | 12.23605 | 3312 ft | 185 kts | 145° |
| 2026-05-05 16:32 | 41.76630 | 12.24677 | 4119 ft | 202 kts | 143° |
| 2026-05-05 16:32 | 41.75737 | 12.26232 | 4791 ft | 234 kts | 118° |
| 2026-05-05 16:33 | 41.75594 | 12.28614 | 5363 ft | 273 kts | 84° |
| 2026-05-05 16:33 | 41.76337 | 12.30983 | 6421 ft | 284 kts | 52° |
| 2026-05-05 16:33 | 41.77714 | 12.32851 | 7859 ft | 288 kts | 42° |
| 2026-05-05 16:33 | 41.79296 | 12.34554 | 9068 ft | 293 kts | 36° |
| 2026-05-05 16:34 | 41.80938 | 12.36217 | 10288 ft | 301 kts | 37° |
| 2026-05-05 16:34 | 41.82645 | 12.38047 | 10942 ft | 328 kts | 38° |
| 2026-05-05 16:34 | 41.84486 | 12.40084 | 11512 ft | 356 kts | 38° |
| 2026-05-05 16:34 | 41.86443 | 12.42223 | 12496 ft | 366 kts | 37° |
| 2026-05-05 16:35 | 41.88441 | 12.44379 | 13654 ft | 373 kts | 37° |
| 2026-05-05 16:35 | 41.90481 | 12.46588 | 14653 ft | 380 kts | 37° |
| 2026-05-05 16:35 | 41.92555 | 12.48849 | 15707 ft | 385 kts | 37° |
| 2026-05-05 16:35 | 41.94649 | 12.51133 | 16708 ft | 391 kts | 37° |
| 2026-05-05 16:36 | 41.96789 | 12.53463 | 17705 ft | 398 kts | 37° |
| 2026-05-05 16:36 | 41.98928 | 12.55795 | 18629 ft | 404 kts | 37° |
| 2026-05-05 16:36 | 42.01246 | 12.57922 | 19484 ft | 404 kts | 23° |
| 2026-05-05 16:36 | 42.03893 | 12.59131 | 20364 ft | 403 kts | 7° |
| 2026-05-05 16:37 | 42.06696 | 12.59428 | 21194 ft | 404 kts | 358° |
| 2026-05-05 16:37 | 42.09522 | 12.59520 | 22020 ft | 409 kts | 358° |
| 2026-05-05 16:37 | 42.11418 | 12.59556 | 22563 ft | 412 kts | 358° |
| 2026-05-05 16:37 | 42.14296 | 12.59611 | 23346 ft | 416 kts | 358° |
| 2026-05-05 16:38 | 42.17211 | 12.59692 | 24020 ft | 421 kts | 358° |
| 2026-05-05 16:38 | 42.20153 | 12.59780 | 24694 ft | 424 kts | 358° |
| 2026-05-05 16:38 | 42.23110 | 12.59857 | 25329 ft | 427 kts | 357° |
| 2026-05-05 16:38 | 42.26090 | 12.60016 | 25951 ft | 432 kts | 0° |
| 2026-05-05 16:39 | 42.29102 | 12.60325 | 26560 ft | 435 kts | 359° |
| 2026-05-05 16:39 | 42.32133 | 12.60599 | 27182 ft | 438 kts | 359° |
| 2026-05-05 16:39 | 42.35190 | 12.60885 | 27771 ft | 442 kts | 359° |
| 2026-05-05 16:39 | 42.38270 | 12.61192 | 28367 ft | 445 kts | 358° |
| 2026-05-05 16:40 | 42.41364 | 12.61498 | 28914 ft | 448 kts | 358° |
| 2026-05-05 16:40 | 42.44483 | 12.61893 | 29450 ft | 456 kts | 4° |
| 2026-05-05 16:40 | 42.47586 | 12.62997 | 29992 ft | 468 kts | 14° |
| 2026-05-05 16:40 | 42.50571 | 12.64884 | 30458 ft | 480 kts | 24° |
| 2026-05-05 16:41 | 42.53454 | 12.67215 | 30859 ft | 485 kts | 25° |
| 2026-05-05 16:41 | 42.56351 | 12.69589 | 31296 ft | 488 kts | 25° |
| 2026-05-05 16:41 | 42.59259 | 12.71999 | 31705 ft | 491 kts | 25° |
| 2026-05-05 16:41 | 42.62188 | 12.74412 | 32111 ft | 494 kts | 25° |
| 2026-05-05 16:42 | 42.65136 | 12.76831 | 32497 ft | 497 kts | 25° |
| 2026-05-05 16:42 | 42.68066 | 12.79242 | 32786 ft | 501 kts | 25° |
| 2026-05-05 16:42 | 42.71051 | 12.81712 | 33190 ft | 504 kts | 25° |
| 2026-05-05 16:42 | 42.74051 | 12.84195 | 33633 ft | 505 kts | 25° |
| 2026-05-05 16:43 | 42.77077 | 12.86695 | 33982 ft | 508 kts | 25° |
| 2026-05-05 16:43 | 42.80106 | 12.89201 | 34235 ft | 512 kts | 25° |
| 2026-05-05 16:43 | 42.83140 | 12.91722 | 34660 ft | 509 kts | 25° |
| 2026-05-05 16:43 | 42.86155 | 12.94229 | 35180 ft | 507 kts | 25° |
| 2026-05-05 16:44 | 42.89157 | 12.96723 | 35667 ft | 505 kts | 25° |
| 2026-05-05 16:44 | 42.92154 | 12.99214 | 36142 ft | 503 kts | 25° |
| 2026-05-05 16:44 | 42.95133 | 13.01696 | 36612 ft | 501 kts | 25° |
| 2026-05-05 16:44 | 42.98103 | 13.04174 | 37039 ft | 500 kts | 26° |
| 2026-05-05 16:45 | 43.01072 | 13.06654 | 37510 ft | 498 kts | 25° |
| 2026-05-05 16:45 | 43.04024 | 13.09122 | 37964 ft | 497 kts | 26° |
| 2026-05-05 16:45 | 43.06970 | 13.11587 | 38406 ft | 495 kts | 26° |
| 2026-05-05 16:45 | 43.09868 | 13.14015 | 38812 ft | 494 kts | 26° |
| 2026-05-05 16:46 | 43.12802 | 13.16476 | 39072 ft | 495 kts | 26° |
| 2026-05-05 16:46 | 43.15737 | 13.18941 | 39323 ft | 495 kts | 26° |
| 2026-05-05 16:46 | 43.18676 | 13.21413 | 39661 ft | 494 kts | 26° |
| 2026-05-05 16:46 | 43.21608 | 13.23880 | 39939 ft | 495 kts | 26° |
| 2026-05-05 16:47 | 43.27528 | 13.28867 | 39977 ft | 505 kts | 27° |
| 2026-05-05 16:47 | 43.33580 | 13.33986 | 39987 ft | 513 kts | 27° |
| 2026-05-05 16:48 | 43.39649 | 13.39129 | 39997 ft | 513 kts | 27° |
| 2026-05-05 16:48 | 43.45700 | 13.44266 | 40001 ft | 512 kts | 27° |
| 2026-05-05 16:49 | 43.51757 | 13.49423 | 40001 ft | 511 kts | 27° |
| 2026-05-05 16:49 | 43.57807 | 13.54584 | 40005 ft | 513 kts | 27° |
| 2026-05-05 16:50 | 43.63908 | 13.59802 | 39997 ft | 517 kts | 28° |
| 2026-05-05 16:50 | 43.70020 | 13.65043 | 39997 ft | 517 kts | 28° |
| 2026-05-05 16:51 | 43.76127 | 13.70291 | 39994 ft | 517 kts | 28° |
| 2026-05-05 16:51 | 43.82238 | 13.75557 | 39990 ft | 517 kts | 28° |
| 2026-05-05 16:52 | 43.88334 | 13.80822 | 39989 ft | 516 kts | 28° |
| 2026-05-05 16:52 | 43.94413 | 13.86085 | 39989 ft | 515 kts | 28° |
| 2026-05-05 16:53 | 44.00489 | 13.91328 | 39992 ft | 514 kts | 25° |
| 2026-05-05 16:53 | 44.07027 | 13.95146 | 39995 ft | 509 kts | 17° |
| 2026-05-05 16:54 | 44.13606 | 13.98586 | 39997 ft | 509 kts | 17° |
| 2026-05-05 16:54 | 44.20228 | 14.02113 | 39999 ft | 509 kts | 17° |
| 2026-05-05 16:55 | 44.26849 | 14.05618 | 40001 ft | 509 kts | 17° |
| 2026-05-05 16:55 | 44.33469 | 14.09146 | 39999 ft | 510 kts | 17° |
| 2026-05-05 16:56 | 44.40093 | 14.12678 | 40006 ft | 509 kts | 17° |
| 2026-05-05 16:56 | 44.46711 | 14.16218 | 40011 ft | 509 kts | 18° |
| 2026-05-05 16:57 | 44.53332 | 14.19767 | 39999 ft | 509 kts | 18° |
| 2026-05-05 16:57 | 44.59920 | 14.23308 | 40014 ft | 509 kts | 18° |
| 2026-05-05 16:58 | 44.66531 | 14.26869 | 40010 ft | 509 kts | 18° |
| 2026-05-05 16:58 | 44.73132 | 14.30434 | 40019 ft | 508 kts | 18° |
| 2026-05-05 16:59 | 44.79736 | 14.34009 | 40012 ft | 507 kts | 18° |
| 2026-05-05 16:59 | 44.83016 | 14.35788 | 39746 ft | 506 kts | 18° |
| 2026-05-05 16:59 | 44.86312 | 14.37577 | 39428 ft | 506 kts | 18° |
| 2026-05-05 17:00 | 44.89594 | 14.39361 | 39158 ft | 505 kts | 18° |
| 2026-05-05 17:00 | 44.92860 | 14.41141 | 39026 ft | 501 kts | 18° |
| 2026-05-05 17:00 | 44.99358 | 14.44682 | 39028 ft | 502 kts | 18° |
| 2026-05-05 17:01 | 45.05890 | 14.48254 | 39029 ft | 503 kts | 18° |
| 2026-05-05 17:01 | 45.12417 | 14.51831 | 39027 ft | 503 kts | 18° |
| 2026-05-05 17:02 | 45.18942 | 14.55415 | 39032 ft | 504 kts | 18° |
| 2026-05-05 17:02 | 45.25435 | 14.58995 | 39024 ft | 491 kts | 18° |
| 2026-05-05 17:03 | 45.31650 | 14.62424 | 39010 ft | 478 kts | 18° |
| 2026-05-05 17:03 | 45.37842 | 14.65847 | 39010 ft | 479 kts | 18° |
| 2026-05-05 17:04 | 45.44070 | 14.69304 | 39004 ft | 480 kts | 18° |
| 2026-05-05 17:04 | 45.50283 | 14.72757 | 39001 ft | 481 kts | 18° |
| 2026-05-05 17:05 | 45.56710 | 14.75752 | 39011 ft | 492 kts | 13° |
| 2026-05-05 17:05 | 45.63334 | 14.78575 | 39001 ft | 499 kts | 14° |
| 2026-05-05 17:06 | 45.69971 | 14.81401 | 38994 ft | 496 kts | 14° |
| 2026-05-05 17:06 | 45.73250 | 14.82803 | 38984 ft | 484 kts | 14° |
| 2026-05-05 17:06 | 45.76422 | 14.84161 | 38973 ft | 473 kts | 14° |
| 2026-05-05 17:07 | 45.82668 | 14.86830 | 38972 ft | 467 kts | 14° |
| 2026-05-05 17:07 | 45.88911 | 14.89511 | 38964 ft | 470 kts | 14° |
| 2026-05-05 17:08 | 45.95140 | 14.92191 | 38965 ft | 470 kts | 14° |
| 2026-05-05 17:08 | 46.01403 | 14.94892 | 38965 ft | 470 kts | 14° |
| 2026-05-05 17:09 | 46.04339 | 14.96160 | 38966 ft | 471 kts | 14° |
| 2026-05-05 17:09 | 46.10304 | 14.98740 | 38976 ft | 471 kts | 14° |
| 2026-05-05 17:10 | 46.16669 | 15.01499 | 39094 ft | 482 kts | 14° |
| 2026-05-05 17:10 | 46.20618 | 15.03218 | 39436 ft | 483 kts | 14° |
| 2026-05-05 17:11 | 46.23827 | 15.04615 | 39697 ft | 484 kts | 14° |
| 2026-05-05 17:11 | 46.27066 | 15.06025 | 39954 ft | 485 kts | 14° |
| 2026-05-05 17:11 | 46.33574 | 15.08865 | 39951 ft | 488 kts | 14° |
| 2026-05-05 17:12 | 46.40048 | 15.11700 | 39937 ft | 485 kts | 14° |